createdAt,value
2022-12-01T00:03:39.874Z,99.90
2022-12-01T00:08:48.414Z,99.90
2022-12-01T00:13:56.895Z,99.90
2022-12-01T00:19:05.153Z,99.90
2022-12-01T00:24:13.839Z,99.90
2022-12-01T00:29:22.245Z,99.90
2022-12-01T00:34:31.000Z,99.90
2022-12-01T00:39:39.397Z,99.90
2022-12-01T00:44:47.781Z,99.90
2022-12-01T00:49:56.074Z,99.90
2022-12-01T00:55:04.858Z,99.90
2022-12-01T01:00:13.353Z,99.90
2022-12-01T01:05:22.070Z,99.90
2022-12-01T01:10:30.439Z,99.90
2022-12-01T01:15:39.261Z,99.90
2022-12-01T01:20:48.109Z,99.90
2022-12-01T01:25:56.760Z,99.90
2022-12-01T01:31:05.548Z,99.90
2022-12-01T01:36:14.534Z,99.90
2022-12-01T01:41:22.962Z,99.90
2022-12-01T01:46:31.570Z,99.90
2022-12-01T01:51:39.802Z,99.90
2022-12-01T01:56:48.598Z,99.90
2022-12-01T02:01:56.823Z,99.90
2022-12-01T02:07:05.479Z,99.90
2022-12-01T02:12:13.881Z,99.90
2022-12-01T02:17:22.532Z,99.90
2022-12-01T02:22:31.308Z,99.90
2022-12-01T02:27:40.019Z,99.90
2022-12-01T02:32:48.354Z,99.90
2022-12-01T02:37:56.869Z,99.90
2022-12-01T02:43:05.392Z,99.90
2022-12-01T02:48:14.024Z,99.90
2022-12-01T02:53:22.714Z,99.90
2022-12-01T02:58:31.598Z,99.90
2022-12-01T03:03:39.879Z,99.90
2022-12-01T03:08:48.539Z,99.90
2022-12-01T03:13:57.328Z,99.90
2022-12-01T03:19:06.124Z,99.90
2022-12-01T03:24:14.737Z,99.90
2022-12-01T03:29:23.624Z,99.90
2022-12-01T03:34:31.994Z,99.90
2022-12-01T03:39:40.703Z,99.90
2022-12-01T03:44:49.030Z,99.90
2022-12-01T03:49:57.379Z,99.90
2022-12-01T03:55:06.145Z,99.90
2022-12-01T04:00:14.822Z,99.90
2022-12-01T04:05:25.441Z,99.90
2022-12-01T04:10:31.532Z,99.90
2022-12-01T04:15:40.172Z,99.90
2022-12-01T04:20:48.994Z,99.90
2022-12-01T04:25:57.689Z,99.90
2022-12-01T04:31:06.462Z,99.90
2022-12-01T04:36:14.941Z,99.90
2022-12-01T04:41:23.953Z,99.90
2022-12-01T04:46:32.695Z,99.90
2022-12-01T04:51:41.593Z,99.90
2022-12-01T04:56:50.007Z,99.90
2022-12-01T05:01:58.408Z,99.90
2022-12-01T05:07:06.351Z,99.90
2022-12-01T05:12:15.112Z,99.90
2022-12-01T05:17:23.675Z,99.90
2022-12-01T05:23:03.658Z,99.90
2022-12-01T05:27:40.542Z,99.90
2022-12-01T05:32:49.217Z,99.90
2022-12-01T05:37:57.409Z,99.90
2022-12-01T05:43:05.946Z,99.90
2022-12-01T05:48:14.273Z,99.90
2022-12-01T05:53:23.361Z,99.90
2022-12-01T05:58:31.363Z,99.90
2022-12-01T06:03:40.300Z,99.90
2022-12-01T06:08:48.446Z,99.90
2022-12-01T06:13:56.986Z,99.90
2022-12-01T06:19:05.642Z,99.90
2022-12-01T06:24:14.371Z,99.90
2022-12-01T06:29:22.822Z,99.90
2022-12-01T06:34:31.654Z,99.90
2022-12-01T06:39:40.457Z,99.90
2022-12-01T06:44:49.442Z,99.90
2022-12-01T06:49:58.187Z,99.90
2022-12-01T06:55:06.563Z,99.90
2022-12-01T07:00:15.138Z,99.90
2022-12-01T07:05:23.808Z,99.90
2022-12-01T07:10:31.715Z,99.90
2022-12-01T07:15:40.463Z,99.90
2022-12-01T07:20:48.841Z,99.90
2022-12-01T07:25:57.486Z,99.90
2022-12-01T07:31:05.776Z,99.90
2022-12-01T07:36:14.601Z,99.90
2022-12-01T07:41:22.818Z,99.90
2022-12-01T07:46:31.490Z,99.90
2022-12-01T07:51:39.836Z,99.90
2022-12-01T07:56:47.839Z,99.90
2022-12-01T08:01:56.059Z,99.90
2022-12-01T08:07:04.618Z,99.90
2022-12-01T08:12:13.111Z,99.90
2022-12-01T08:17:21.896Z,99.90
2022-12-01T08:22:30.412Z,99.90
2022-12-01T08:27:39.419Z,99.90
2022-12-01T08:32:47.330Z,99.90
2022-12-01T08:37:56.159Z,99.90
2022-12-01T08:43:04.811Z,99.90
2022-12-01T08:48:13.498Z,99.90
2022-12-01T08:53:21.616Z,99.60
2022-12-01T08:58:30.415Z,98.40
2022-12-01T09:03:38.581Z,96.90
2022-12-01T09:08:47.517Z,96.50
2022-12-01T09:13:56.145Z,95.80
2022-12-01T09:19:04.954Z,95.80
2022-12-01T09:24:13.410Z,95.00
2022-12-01T09:29:22.194Z,93.90
2022-12-01T09:34:30.785Z,93.00
2022-12-01T09:39:39.896Z,92.00
2022-12-01T09:44:48.213Z,91.60
2022-12-01T09:49:57.359Z,91.30
2022-12-01T09:55:05.710Z,90.20
2022-12-01T10:00:14.432Z,90.30
2022-12-01T10:05:22.678Z,90.20
2022-12-01T10:10:31.517Z,88.40
2022-12-01T10:15:40.063Z,88.90
2022-12-01T10:20:48.177Z,88.10
2022-12-01T10:25:56.783Z,87.40
2022-12-01T10:31:05.546Z,87.40
2022-12-01T10:36:14.163Z,87.50
2022-12-01T10:41:23.391Z,88.00
2022-12-01T10:46:31.549Z,88.60
2022-12-01T10:51:40.496Z,88.60
2022-12-01T10:56:49.453Z,88.70
2022-12-01T11:01:58.531Z,88.80
2022-12-01T11:07:07.058Z,89.10
2022-12-01T11:12:16.281Z,89.70
2022-12-01T11:17:24.771Z,90.50
2022-12-01T11:22:33.576Z,91.10
2022-12-01T11:27:42.590Z,91.00
2022-12-01T11:32:51.637Z,90.70
2022-12-01T11:38:28.279Z,90.20
2022-12-01T11:43:08.368Z,90.40
2022-12-01T11:48:16.816Z,90.50
2022-12-01T11:53:25.843Z,90.50
2022-12-01T11:58:34.825Z,90.30
2022-12-01T12:03:42.973Z,90.00
2022-12-01T12:08:51.744Z,90.00
2022-12-01T12:14:00.908Z,90.00
2022-12-01T12:19:09.828Z,89.70
2022-12-01T12:24:18.783Z,89.50
2022-12-01T12:29:27.554Z,89.80
2022-12-01T12:34:36.573Z,90.00
2022-12-01T12:39:45.045Z,90.10
2022-12-01T12:44:53.979Z,89.80
2022-12-01T12:50:02.972Z,90.20
2022-12-01T12:55:12.369Z,90.30
2022-12-01T13:00:21.268Z,90.70
2022-12-01T13:05:29.569Z,91.00
2022-12-01T13:10:37.907Z,91.20
2022-12-01T13:15:46.456Z,91.40
2022-12-01T13:20:55.034Z,91.60
2022-12-01T13:26:03.746Z,92.10
2022-12-01T13:31:12.130Z,92.50
2022-12-01T13:36:45.657Z,92.60
2022-12-01T13:41:28.976Z,93.10
2022-12-01T13:46:37.567Z,93.40
2022-12-01T13:51:45.882Z,93.80
2022-12-01T13:56:54.611Z,94.30
2022-12-01T14:02:03.159Z,94.70
2022-12-01T14:07:11.658Z,94.90
2022-12-01T14:12:20.348Z,95.10
2022-12-01T14:17:28.911Z,95.30
2022-12-01T14:22:37.752Z,95.50
2022-12-01T14:27:46.252Z,95.60
2022-12-01T14:32:54.492Z,95.90
2022-12-01T14:38:03.441Z,96.10
2022-12-01T14:43:11.702Z,96.40
2022-12-01T14:48:20.534Z,96.60
2022-12-01T14:53:28.456Z,96.60
2022-12-01T14:58:37.197Z,97.90
2022-12-01T15:03:45.632Z,97.30
2022-12-01T15:09:25.303Z,97.20
2022-12-01T15:14:02.119Z,97.20
2022-12-01T15:19:10.946Z,97.50
2022-12-01T15:24:19.443Z,97.40
2022-12-01T15:29:28.274Z,97.50
2022-12-01T15:34:37.096Z,97.50
2022-12-01T15:39:46.209Z,97.50
2022-12-01T15:44:59.880Z,97.10
2022-12-01T15:50:02.795Z,97.10
2022-12-01T15:55:10.952Z,97.10
2022-12-01T16:00:19.397Z,96.90
2022-12-01T16:05:27.390Z,97.00
2022-12-01T16:10:35.788Z,96.90
2022-12-01T16:15:44.387Z,96.80
2022-12-01T16:20:52.976Z,96.90
2022-12-01T16:26:02.313Z,96.80
2022-12-01T16:31:15.063Z,96.60
2022-12-01T16:36:18.761Z,96.70
2022-12-01T16:41:25.604Z,96.80
2022-12-01T16:46:34.024Z,96.90
2022-12-01T16:51:55.512Z,96.90
2022-12-01T16:56:50.757Z,97.00
2022-12-01T17:01:59.168Z,96.70
2022-12-01T17:07:07.500Z,96.50
2022-12-01T17:12:16.100Z,96.50
2022-12-01T17:17:24.750Z,96.10
2022-12-01T17:22:33.370Z,96.00
2022-12-01T17:27:41.693Z,96.00
2022-12-01T17:32:50.140Z,96.00
2022-12-01T17:37:58.414Z,96.00
2022-12-01T17:43:07.321Z,95.80
2022-12-01T17:48:15.460Z,95.60
2022-12-01T17:53:24.111Z,95.50
2022-12-01T17:58:32.194Z,95.90
2022-12-01T18:03:40.746Z,96.00
2022-12-01T18:08:48.978Z,95.50
2022-12-01T18:13:57.452Z,96.00
2022-12-01T18:19:05.552Z,95.70
2022-12-01T18:24:14.278Z,95.70
2022-12-01T18:29:22.522Z,96.00
2022-12-01T18:34:31.001Z,95.50
2022-12-01T18:39:39.240Z,95.90
2022-12-01T18:44:48.350Z,95.90
2022-12-01T18:49:56.263Z,95.60
2022-12-01T18:55:04.766Z,95.80
2022-12-01T19:00:12.865Z,95.70
2022-12-01T19:05:21.525Z,95.40
2022-12-01T19:10:29.951Z,95.60
2022-12-01T19:15:38.417Z,95.50
2022-12-01T19:20:46.962Z,95.70
2022-12-01T19:25:55.574Z,95.50
2022-12-01T19:31:03.940Z,95.40
2022-12-01T19:36:13.039Z,95.50
2022-12-01T19:41:21.381Z,95.20
2022-12-01T19:46:30.060Z,95.50
2022-12-01T19:51:38.427Z,95.20
2022-12-01T19:56:47.105Z,95.30
2022-12-01T20:01:55.578Z,95.10
2022-12-01T20:07:04.296Z,95.10
2022-12-01T20:12:12.508Z,95.50
2022-12-01T20:17:20.859Z,95.60
2022-12-01T20:22:28.877Z,95.40
2022-12-01T20:27:37.568Z,95.60
2022-12-01T20:32:45.963Z,95.70
2022-12-01T20:37:54.887Z,95.80
2022-12-01T20:43:03.238Z,95.30
2022-12-01T20:48:11.937Z,95.10
2022-12-01T20:53:20.354Z,94.90
2022-12-01T20:58:32.079Z,95.00
2022-12-01T21:03:36.769Z,95.10
2022-12-01T21:08:45.359Z,94.60
2022-12-01T21:13:53.433Z,94.80
2022-12-01T21:19:01.701Z,95.30
2022-12-01T21:24:09.765Z,95.20
2022-12-01T21:29:18.139Z,95.50
2022-12-01T21:34:26.381Z,95.60
2022-12-01T21:39:34.743Z,95.70
2022-12-01T21:44:43.155Z,96.00
2022-12-01T21:49:51.615Z,96.20
2022-12-01T21:54:59.852Z,96.50
2022-12-01T22:00:08.081Z,97.10
2022-12-01T22:05:16.139Z,97.60
2022-12-01T22:10:24.741Z,98.00
2022-12-01T22:15:33.175Z,98.30
2022-12-01T22:20:41.406Z,98.60
2022-12-01T22:25:49.302Z,98.80
2022-12-01T22:30:57.673Z,99.00
2022-12-01T22:36:06.180Z,99.20
2022-12-01T22:41:14.826Z,99.60
2022-12-01T22:46:23.217Z,99.90
2022-12-01T22:51:31.825Z,99.90
2022-12-01T22:56:39.997Z,99.90
2022-12-01T23:01:48.614Z,99.90
2022-12-01T23:06:56.955Z,99.90
2022-12-01T23:12:05.783Z,99.90
2022-12-01T23:17:13.836Z,99.90
2022-12-01T23:22:22.288Z,99.90
2022-12-01T23:27:30.295Z,99.90
2022-12-01T23:32:38.670Z,99.90
2022-12-01T23:37:47.041Z,99.90
2022-12-01T23:42:55.410Z,99.90
2022-12-01T23:48:09.609Z,99.90
2022-12-01T23:53:11.910Z,99.90
2022-12-01T23:58:20.020Z,99.90
